sensor_id;sensor_type;location;lat;lon;timestamp;pressure;altitude;pressure_sealevel;temperature;humidity
75543;BME280;64129;53.508;10.476;2023-07-31T00:02:09;100379.69;;;14.02;95.56
75543;BME280;64129;53.508;10.476;2023-07-31T00:04:36;100379.41;;;14.09;95.24
75543;BME280;64129;53.508;10.476;2023-07-31T00:07:03;100379.69;;;14.02;95.08
75543;BME280;64129;53.508;10.476;2023-07-31T00:09:30;100377.44;;;13.93;96.21
75543;BME280;64129;53.508;10.476;2023-07-31T00:11:57;100379.91;;;13.98;94.42
75543;BME280;64129;53.508;10.476;2023-07-31T00:14:23;100374.81;;;14.12;94.69
75543;BME280;64129;53.508;10.476;2023-07-31T00:16:50;100364.25;;;14.09;93.71
75543;BME280;64129;53.508;10.476;2023-07-31T00:19:17;100367.00;;;14.08;96.25
75543;BME280;64129;53.508;10.476;2023-07-31T00:21:44;100369.59;;;14.09;95.57
75543;BME280;64129;53.508;10.476;2023-07-31T00:24:11;100366.66;;;14.15;94.73
75543;BME280;64129;53.508;10.476;2023-07-31T00:26:37;100360.06;;;14.03;95.20
75543;BME280;64129;53.508;10.476;2023-07-31T00:29:04;100365.00;;;14.13;95.56
75543;BME280;64129;53.508;10.476;2023-07-31T00:31:31;100368.16;;;14.02;95.48
75543;BME280;64129;53.508;10.476;2023-07-31T00:33:57;100359.50;;;14.16;94.59
75543;BME280;64129;53.508;10.476;2023-07-31T00:36:24;100358.41;;;14.01;95.81
75543;BME280;64129;53.508;10.476;2023-07-31T00:38:50;100360.94;;;14.04;95.26
75543;BME280;64129;53.508;10.476;2023-07-31T00:41:17;100357.47;;;14.02;95.95
75543;BME280;64129;53.508;10.476;2023-07-31T00:43:43;100349.84;;;14.13;91.76
75543;BME280;64129;53.508;10.476;2023-07-31T00:46:10;100344.31;;;13.97;96.38
75543;BME280;64129;53.508;10.476;2023-07-31T00:48:37;100343.25;;;14.01;93.33
75543;BME280;64129;53.508;10.476;2023-07-31T00:51:05;100339.38;;;13.88;96.64
75543;BME280;64129;53.508;10.476;2023-07-31T00:53:34;100338.84;;;14.00;93.78
75543;BME280;64129;53.508;10.476;2023-07-31T00:56:01;100335.38;;;13.98;96.61
75543;BME280;64129;53.508;10.476;2023-07-31T00:58:27;100343.03;;;14.06;94.40
75543;BME280;64129;53.508;10.476;2023-07-31T01:00:54;100337.56;;;14.09;94.46
75543;BME280;64129;53.508;10.476;2023-07-31T01:03:20;100331.34;;;14.09;93.06
75543;BME280;64129;53.508;10.476;2023-07-31T01:06:17;100338.44;;;14.10;94.77
75543;BME280;64129;53.508;10.476;2023-07-31T01:11:29;100330.28;;;14.13;93.22
75543;BME280;64129;53.508;10.476;2023-07-31T01:13:57;100328.53;;;14.12;94.00
75543;BME280;64129;53.508;10.476;2023-07-31T01:16:25;100330.94;;;14.18;92.06
75543;BME280;64129;53.508;10.476;2023-07-31T01:18:52;100323.59;;;14.23;93.49
75543;BME280;64129;53.508;10.476;2023-07-31T01:24:20;100313.31;;;14.14;95.74
75543;BME280;64129;53.508;10.476;2023-07-31T01:27:06;100308.84;;;14.14;95.03
75543;BME280;64129;53.508;10.476;2023-07-31T01:29:47;100315.84;;;14.17;95.06
75543;BME280;64129;53.508;10.476;2023-07-31T01:32:17;100308.25;;;14.08;95.72
75543;BME280;64129;53.508;10.476;2023-07-31T01:34:45;100313.09;;;14.18;93.82
75543;BME280;64129;53.508;10.476;2023-07-31T01:37:12;100307.84;;;14.17;95.44
75543;BME280;64129;53.508;10.476;2023-07-31T01:39:39;100305.81;;;14.22;92.77
75543;BME280;64129;53.508;10.476;2023-07-31T01:42:06;100307.19;;;14.12;95.97
75543;BME280;64129;53.508;10.476;2023-07-31T01:44:33;100308.13;;;14.11;96.92
75543;BME280;64129;53.508;10.476;2023-07-31T01:47:00;100299.44;;;14.05;96.31
75543;BME280;64129;53.508;10.476;2023-07-31T01:49:27;100291.94;;;14.14;92.71
75543;BME280;64129;53.508;10.476;2023-07-31T01:51:53;100295.97;;;14.03;97.55
75543;BME280;64129;53.508;10.476;2023-07-31T01:54:21;100290.19;;;13.94;97.62
75543;BME280;64129;53.508;10.476;2023-07-31T01:56:47;100293.69;;;14.15;94.01
75543;BME280;64129;53.508;10.476;2023-07-31T01:59:14;100280.41;;;14.13;94.10
75543;BME280;64129;53.508;10.476;2023-07-31T02:01:41;100284.59;;;14.19;94.11
75543;BME280;64129;53.508;10.476;2023-07-31T02:04:07;100283.94;;;14.14;95.19
75543;BME280;64129;53.508;10.476;2023-07-31T02:06:34;100285.59;;;14.16;95.67
75543;BME280;64129;53.508;10.476;2023-07-31T02:09:00;100274.47;;;14.07;97.48
75543;BME280;64129;53.508;10.476;2023-07-31T02:11:27;100273.66;;;14.25;91.69
75543;BME280;64129;53.508;10.476;2023-07-31T02:13:54;100267.50;;;14.23;94.99
75543;BME280;64129;53.508;10.476;2023-07-31T02:16:20;100266.97;;;14.15;97.25
75543;BME280;64129;53.508;10.476;2023-07-31T02:18:47;100265.75;;;14.22;94.96
75543;BME280;64129;53.508;10.476;2023-07-31T02:21:13;100264.94;;;14.20;96.73
75543;BME280;64129;53.508;10.476;2023-07-31T02:23:40;100261.22;;;14.24;96.73
75543;BME280;64129;53.508;10.476;2023-07-31T02:26:06;100253.56;;;14.35;95.89
75543;BME280;64129;53.508;10.476;2023-07-31T02:28:33;100253.72;;;14.32;95.68
75543;BME280;64129;53.508;10.476;2023-07-31T02:30:59;100256.53;;;14.29;96.27
75543;BME280;64129;53.508;10.476;2023-07-31T02:33:26;100257.84;;;14.39;96.24
75543;BME280;64129;53.508;10.476;2023-07-31T02:35:52;100246.09;;;14.43;93.36
75543;BME280;64129;53.508;10.476;2023-07-31T02:38:21;100251.34;;;14.26;98.14
75543;BME280;64129;53.508;10.476;2023-07-31T02:40:48;100246.50;;;14.34;97.83
75543;BME280;64129;53.508;10.476;2023-07-31T02:43:15;100249.03;;;14.37;96.79
75543;BME280;64129;53.508;10.476;2023-07-31T02:45:42;100240.88;;;14.40;95.67
75543;BME280;64129;53.508;10.476;2023-07-31T02:48:10;100242.75;;;14.38;97.10
75543;BME280;64129;53.508;10.476;2023-07-31T02:50:36;100250.03;;;14.34;97.88
75543;BME280;64129;53.508;10.476;2023-07-31T02:53:03;100237.25;;;14.41;96.40
75543;BME280;64129;53.508;10.476;2023-07-31T02:55:29;100249.47;;;14.28;98.55
75543;BME280;64129;53.508;10.476;2023-07-31T02:57:56;100247.50;;;14.31;97.88
75543;BME280;64129;53.508;10.476;2023-07-31T03:00:24;100243.19;;;14.29;98.93
75543;BME280;64129;53.508;10.476;2023-07-31T03:02:51;100235.03;;;14.32;98.54
75543;BME280;64129;53.508;10.476;2023-07-31T03:05:17;100238.63;;;14.31;97.47
75543;BME280;64129;53.508;10.476;2023-07-31T03:07:44;100234.72;;;14.38;98.12
75543;BME280;64129;53.508;10.476;2023-07-31T03:10:10;100228.28;;;14.42;98.58
75543;BME280;64129;53.508;10.476;2023-07-31T03:12:37;100233.78;;;14.39;99.17
75543;BME280;64129;53.508;10.476;2023-07-31T03:15:04;100235.31;;;14.26;100.00
75543;BME280;64129;53.508;10.476;2023-07-31T03:17:31;100227.31;;;14.26;100.00
75543;BME280;64129;53.508;10.476;2023-07-31T03:19:57;100223.41;;;14.33;100.00
75543;BME280;64129;53.508;10.476;2023-07-31T03:22:24;100230.31;;;14.37;99.49
75543;BME280;64129;53.508;10.476;2023-07-31T03:24:50;100220.81;;;14.31;99.74
75543;BME280;64129;53.508;10.476;2023-07-31T03:27:18;100204.13;;;14.45;96.99
75543;BME280;64129;53.508;10.476;2023-07-31T03:29:44;100206.44;;;14.53;96.41
75543;BME280;64129;53.508;10.476;2023-07-31T03:32:11;100208.00;;;14.38;100.00
75543;BME280;64129;53.508;10.476;2023-07-31T03:34:37;100200.66;;;14.43;99.82
75543;BME280;64129;53.508;10.476;2023-07-31T03:37:05;100198.13;;;14.40;98.62
75543;BME280;64129;53.508;10.476;2023-07-31T03:39:32;100193.63;;;14.41;99.30
75543;BME280;64129;53.508;10.476;2023-07-31T03:41:58;100187.00;;;14.49;99.77
75543;BME280;64129;53.508;10.476;2023-07-31T03:44:25;100194.31;;;14.46;99.87
75543;BME280;64129;53.508;10.476;2023-07-31T03:46:51;100194.22;;;14.47;99.67
75543;BME280;64129;53.508;10.476;2023-07-31T03:49:18;100188.09;;;14.45;100.00
75543;BME280;64129;53.508;10.476;2023-07-31T03:51:45;100195.03;;;14.49;99.26
75543;BME280;64129;53.508;10.476;2023-07-31T03:54:12;100188.19;;;14.44;99.60
75543;BME280;64129;53.508;10.476;2023-07-31T03:56:39;100195.03;;;14.49;98.25
75543;BME280;64129;53.508;10.476;2023-07-31T03:59:06;100199.44;;;14.50;100.00
75543;BME280;64129;53.508;10.476;2023-07-31T04:01:32;100205.78;;;14.48;100.00
75543;BME280;64129;53.508;10.476;2023-07-31T04:03:59;100199.72;;;14.44;100.00
75543;BME280;64129;53.508;10.476;2023-07-31T04:06:26;100195.09;;;14.48;99.21
75543;BME280;64129;53.508;10.476;2023-07-31T04:08:52;100202.09;;;14.50;100.00
75543;BME280;64129;53.508;10.476;2023-07-31T04:11:19;100202.31;;;14.46;100.00
75543;BME280;64129;53.508;10.476;2023-07-31T04:13:45;100208.53;;;14.46;100.00
75543;BME280;64129;53.508;10.476;2023-07-31T04:16:12;100200.38;;;14.49;100.00
75543;BME280;64129;53.508;10.476;2023-07-31T04:18:38;100191.25;;;14.53;98.60
75543;BME280;64129;53.508;10.476;2023-07-31T04:21:05;100191.06;;;14.58;99.51
75543;BME280;64129;53.508;10.476;2023-07-31T04:23:31;100201.59;;;14.61;99.33
75543;BME280;64129;53.508;10.476;2023-07-31T04:25:58;100188.31;;;14.59;99.90
75543;BME280;64129;53.508;10.476;2023-07-31T04:28:25;100201.94;;;14.53;100.00
75543;BME280;64129;53.508;10.476;2023-07-31T04:30:52;100190.91;;;14.61;99.02
75543;BME280;64129;53.508;10.476;2023-07-31T04:33:19;100193.59;;;14.61;100.00
75543;BME280;64129;53.508;10.476;2023-07-31T04:35:53;100191.19;;;14.55;100.00
75543;BME280;64129;53.508;10.476;2023-07-31T04:38:21;100189.25;;;14.58;100.00
75543;BME280;64129;53.508;10.476;2023-07-31T04:40:48;100191.47;;;14.68;100.00
75543;BME280;64129;53.508;10.476;2023-07-31T04:43:15;100186.44;;;14.61;100.00
75543;BME280;64129;53.508;10.476;2023-07-31T04:45:48;100183.53;;;14.66;100.00
75543;BME280;64129;53.508;10.476;2023-07-31T04:48:14;100182.91;;;14.61;100.00
75543;BME280;64129;53.508;10.476;2023-07-31T04:50:41;100178.75;;;14.73;100.00
75543;BME280;64129;53.508;10.476;2023-07-31T04:53:08;100178.59;;;14.76;98.74
75543;BME280;64129;53.508;10.476;2023-07-31T04:55:34;100164.75;;;14.68;99.76
75543;BME280;64129;53.508;10.476;2023-07-31T04:58:01;100164.59;;;14.71;99.55
75543;BME280;64129;53.508;10.476;2023-07-31T05:00:27;100162.69;;;14.73;99.75
75543;BME280;64129;53.508;10.476;2023-07-31T05:02:54;100163.16;;;14.63;100.00
75543;BME280;64129;53.508;10.476;2023-07-31T05:05:21;100169.94;;;14.71;100.00
75543;BME280;64129;53.508;10.476;2023-07-31T05:07:47;100162.38;;;14.79;99.58
75543;BME280;64129;53.508;10.476;2023-07-31T05:10:14;100154.38;;;14.79;100.00
75543;BME280;64129;53.508;10.476;2023-07-31T05:12:40;100155.63;;;14.72;100.00
75543;BME280;64129;53.508;10.476;2023-07-31T05:15:07;100156.09;;;14.80;99.80
75543;BME280;64129;53.508;10.476;2023-07-31T05:17:34;100152.00;;;14.73;100.00
75543;BME280;64129;53.508;10.476;2023-07-31T05:20:01;100149.66;;;14.84;100.00
75543;BME280;64129;53.508;10.476;2023-07-31T05:22:27;100147.69;;;14.87;99.44
75543;BME280;64129;53.508;10.476;2023-07-31T05:24:54;100161.13;;;14.86;100.00
75543;BME280;64129;53.508;10.476;2023-07-31T05:27:20;100151.78;;;14.77;100.00
75543;BME280;64129;53.508;10.476;2023-07-31T05:29:47;100157.34;;;14.90;99.82
75543;BME280;64129;53.508;10.476;2023-07-31T05:32:13;100158.16;;;14.92;100.00
75543;BME280;64129;53.508;10.476;2023-07-31T05:34:40;100163.00;;;14.84;100.00
75543;BME280;64129;53.508;10.476;2023-07-31T05:37:07;100158.78;;;14.80;100.00
75543;BME280;64129;53.508;10.476;2023-07-31T05:39:33;100157.03;;;14.79;100.00
75543;BME280;64129;53.508;10.476;2023-07-31T05:42:00;100160.66;;;14.78;100.00
75543;BME280;64129;53.508;10.476;2023-07-31T05:44:26;100144.22;;;14.85;100.00
75543;BME280;64129;53.508;10.476;2023-07-31T05:46:53;100146.03;;;14.85;100.00
75543;BME280;64129;53.508;10.476;2023-07-31T05:49:19;100144.47;;;14.81;100.00
75543;BME280;64129;53.508;10.476;2023-07-31T05:51:46;100137.38;;;14.80;100.00
75543;BME280;64129;53.508;10.476;2023-07-31T05:54:12;100140.53;;;14.88;100.00
75543;BME280;64129;53.508;10.476;2023-07-31T05:56:39;100130.69;;;14.88;100.00
75543;BME280;64129;53.508;10.476;2023-07-31T05:59:05;100131.09;;;14.81;100.00
75543;BME280;64129;53.508;10.476;2023-07-31T06:01:32;100137.16;;;15.02;100.00
75543;BME280;64129;53.508;10.476;2023-07-31T06:03:59;100139.50;;;14.90;100.00
75543;BME280;64129;53.508;10.476;2023-07-31T06:06:25;100138.63;;;14.90;100.00
75543;BME280;64129;53.508;10.476;2023-07-31T06:08:52;100139.38;;;14.93;100.00
75543;BME280;64129;53.508;10.476;2023-07-31T06:11:20;100137.22;;;15.17;100.00
75543;BME280;64129;53.508;10.476;2023-07-31T06:13:46;100134.25;;;15.06;100.00
75543;BME280;64129;53.508;10.476;2023-07-31T06:16:14;100124.00;;;15.14;100.00
75543;BME280;64129;53.508;10.476;2023-07-31T06:18:41;100116.69;;;15.18;99.62
75543;BME280;64129;53.508;10.476;2023-07-31T06:21:09;100120.22;;;15.18;100.00
75543;BME280;64129;53.508;10.476;2023-07-31T06:23:36;100115.50;;;15.23;100.00
75543;BME280;64129;53.508;10.476;2023-07-31T06:26:02;100117.56;;;15.18;100.00
75543;BME280;64129;53.508;10.476;2023-07-31T06:28:30;100122.13;;;15.16;100.00
75543;BME280;64129;53.508;10.476;2023-07-31T06:31:00;100112.03;;;15.21;100.00
75543;BME280;64129;53.508;10.476;2023-07-31T06:33:27;100102.91;;;15.25;100.00
75543;BME280;64129;53.508;10.476;2023-07-31T06:35:54;100108.47;;;15.38;99.98
75543;BME280;64129;53.508;10.476;2023-07-31T06:38:27;100107.94;;;15.32;100.00
75543;BME280;64129;53.508;10.476;2023-07-31T06:40:53;100106.22;;;15.31;100.00
75543;BME280;64129;53.508;10.476;2023-07-31T06:43:20;100105.56;;;15.25;100.00
75543;BME280;64129;53.508;10.476;2023-07-31T06:45:47;100108.81;;;15.32;100.00
75543;BME280;64129;53.508;10.476;2023-07-31T06:48:17;100107.09;;;15.31;100.00
75543;BME280;64129;53.508;10.476;2023-07-31T06:50:43;100100.69;;;15.34;100.00
75543;BME280;64129;53.508;10.476;2023-07-31T06:53:10;100104.00;;;15.39;100.00
75543;BME280;64129;53.508;10.476;2023-07-31T06:55:36;100108.69;;;15.51;100.00
75543;BME280;64129;53.508;10.476;2023-07-31T06:58:03;100106.41;;;15.43;100.00
75543;BME280;64129;53.508;10.476;2023-07-31T07:00:30;100110.56;;;15.49;100.00
75543;BME280;64129;53.508;10.476;2023-07-31T07:02:56;100111.34;;;15.51;100.00
75543;BME280;64129;53.508;10.476;2023-07-31T07:05:23;100106.78;;;15.53;100.00
75543;BME280;64129;53.508;10.476;2023-07-31T07:07:50;100097.50;;;15.60;100.00
75543;BME280;64129;53.508;10.476;2023-07-31T07:10:19;100111.34;;;15.68;100.00
75543;BME280;64129;53.508;10.476;2023-07-31T07:12:46;100110.50;;;15.83;99.64
75543;BME280;64129;53.508;10.476;2023-07-31T07:15:13;100100.22;;;15.91;100.00
75543;BME280;64129;53.508;10.476;2023-07-31T07:17:39;100103.94;;;16.05;99.65
75543;BME280;64129;53.508;10.476;2023-07-31T07:20:07;100111.13;;;16.04;100.00
75543;BME280;64129;53.508;10.476;2023-07-31T07:22:34;100100.69;;;16.00;100.00
75543;BME280;64129;53.508;10.476;2023-07-31T07:25:01;100105.84;;;16.18;98.91
75543;BME280;64129;53.508;10.476;2023-07-31T07:27:27;100112.16;;;16.02;99.35
75543;BME280;64129;53.508;10.476;2023-07-31T07:29:54;100116.97;;;15.95;99.42
75543;BME280;64129;53.508;10.476;2023-07-31T07:32:21;100117.78;;;16.13;99.54
75543;BME280;64129;53.508;10.476;2023-07-31T07:34:48;100118.97;;;15.91;99.23
75543;BME280;64129;53.508;10.476;2023-07-31T07:37:15;100122.50;;;15.92;99.25
75543;BME280;64129;53.508;10.476;2023-07-31T07:39:43;100113.28;;;15.98;99.40
75543;BME280;64129;53.508;10.476;2023-07-31T07:42:09;100120.19;;;16.02;99.85
75543;BME280;64129;53.508;10.476;2023-07-31T07:44:36;100108.28;;;16.07;100.00
75543;BME280;64129;53.508;10.476;2023-07-31T07:47:03;100112.25;;;16.16;99.26
75543;BME280;64129;53.508;10.476;2023-07-31T07:49:29;100120.00;;;16.20;98.93
75543;BME280;64129;53.508;10.476;2023-07-31T07:51:56;100116.28;;;16.23;100.00
75543;BME280;64129;53.508;10.476;2023-07-31T07:54:22;100110.66;;;16.28;100.00
75543;BME280;64129;53.508;10.476;2023-07-31T07:56:49;100106.09;;;16.14;100.00
75543;BME280;64129;53.508;10.476;2023-07-31T07:59:16;100107.66;;;16.18;100.00
75543;BME280;64129;53.508;10.476;2023-07-31T08:01:43;100097.19;;;16.29;99.63
75543;BME280;64129;53.508;10.476;2023-07-31T08:04:09;100110.34;;;16.34;100.00
75543;BME280;64129;53.508;10.476;2023-07-31T08:06:36;100106.84;;;16.47;98.18
75543;BME280;64129;53.508;10.476;2023-07-31T08:09:02;100097.50;;;16.54;98.65
75543;BME280;64129;53.508;10.476;2023-07-31T08:11:32;100094.34;;;16.62;99.50
75543;BME280;64129;53.508;10.476;2023-07-31T08:13:59;100098.19;;;16.74;96.76
75543;BME280;64129;53.508;10.476;2023-07-31T08:16:26;100091.19;;;16.71;98.43
75543;BME280;64129;53.508;10.476;2023-07-31T08:18:53;100088.81;;;16.81;97.84
75543;BME280;64129;53.508;10.476;2023-07-31T08:21:19;100084.44;;;16.94;98.02
75543;BME280;64129;53.508;10.476;2023-07-31T08:23:46;100070.63;;;16.86;97.74
75543;BME280;64129;53.508;10.476;2023-07-31T08:26:19;100080.59;;;16.84;98.50
75543;BME280;64129;53.508;10.476;2023-07-31T08:28:45;100071.97;;;16.93;97.20
75543;BME280;64129;53.508;10.476;2023-07-31T08:31:12;100067.47;;;16.94;97.33
75543;BME280;64129;53.508;10.476;2023-07-31T08:33:39;100069.81;;;17.14;97.60
75543;BME280;64129;53.508;10.476;2023-07-31T08:36:06;100070.72;;;16.99;98.76
75543;BME280;64129;53.508;10.476;2023-07-31T08:38:33;100065.94;;;16.90;98.92
75543;BME280;64129;53.508;10.476;2023-07-31T08:41:00;100060.72;;;17.02;98.60
75543;BME280;64129;53.508;10.476;2023-07-31T08:43:27;100066.56;;;17.09;97.68
75543;BME280;64129;53.508;10.476;2023-07-31T08:45:54;100066.38;;;16.68;98.36
75543;BME280;64129;53.508;10.476;2023-07-31T08:48:22;100055.69;;;16.96;96.40
75543;BME280;64129;53.508;10.476;2023-07-31T08:50:50;100062.19;;;16.92;97.35
75543;BME280;64129;53.508;10.476;2023-07-31T08:53:17;100068.69;;;16.74;99.10
75543;BME280;64129;53.508;10.476;2023-07-31T08:55:45;100056.06;;;16.90;98.45
75543;BME280;64129;53.508;10.476;2023-07-31T08:58:13;100061.81;;;16.84;98.21
75543;BME280;64129;53.508;10.476;2023-07-31T09:00:41;100055.09;;;16.91;98.15
75543;BME280;64129;53.508;10.476;2023-07-31T09:03:14;100048.25;;;17.01;97.89
75543;BME280;64129;53.508;10.476;2023-07-31T09:05:43;100046.88;;;16.94;99.02
75543;BME280;64129;53.508;10.476;2023-07-31T09:08:12;100041.13;;;16.86;98.62
75543;BME280;64129;53.508;10.476;2023-07-31T09:10:43;100041.59;;;16.78;98.50
75543;BME280;64129;53.508;10.476;2023-07-31T09:13:10;100045.03;;;16.80;98.64
75543;BME280;64129;53.508;10.476;2023-07-31T09:15:38;100040.97;;;17.03;97.99
75543;BME280;64129;53.508;10.476;2023-07-31T09:18:08;100034.91;;;17.00;97.40
75543;BME280;64129;53.508;10.476;2023-07-31T09:20:35;100029.19;;;17.06;96.96
75543;BME280;64129;53.508;10.476;2023-07-31T09:23:09;100035.50;;;17.05;97.64
75543;BME280;64129;53.508;10.476;2023-07-31T09:25:37;100040.50;;;17.11;98.27
75543;BME280;64129;53.508;10.476;2023-07-31T09:28:06;100029.38;;;17.03;97.73
75543;BME280;64129;53.508;10.476;2023-07-31T09:30:48;100024.59;;;17.08;97.48
75543;BME280;64129;53.508;10.476;2023-07-31T09:33:15;100024.38;;;17.25;97.62
75543;BME280;64129;53.508;10.476;2023-07-31T09:35:42;100006.16;;;17.30;96.95
75543;BME280;64129;53.508;10.476;2023-07-31T09:38:09;100012.59;;;17.13;98.47
75543;BME280;64129;53.508;10.476;2023-07-31T09:40:38;100015.47;;;17.25;98.22
75543;BME280;64129;53.508;10.476;2023-07-31T09:43:08;100008.19;;;17.12;98.29
75543;BME280;64129;53.508;10.476;2023-07-31T09:45:38;99996.13;;;17.05;98.31
75543;BME280;64129;53.508;10.476;2023-07-31T09:48:10;100001.50;;;17.05;100.00
75543;BME280;64129;53.508;10.476;2023-07-31T09:50:39;99996.69;;;17.25;99.56
75543;BME280;64129;53.508;10.476;2023-07-31T09:53:06;99992.75;;;17.30;98.51
75543;BME280;64129;53.508;10.476;2023-07-31T09:55:34;99987.38;;;17.30;97.98
75543;BME280;64129;53.508;10.476;2023-07-31T09:58:07;99980.97;;;17.19;98.40
75543;BME280;64129;53.508;10.476;2023-07-31T10:00:34;99984.63;;;17.03;98.19
75543;BME280;64129;53.508;10.476;2023-07-31T10:03:04;99987.31;;;17.03;98.58
75543;BME280;64129;53.508;10.476;2023-07-31T10:05:34;99980.41;;;17.13;97.94
75543;BME280;64129;53.508;10.476;2023-07-31T10:08:03;99981.56;;;17.09;98.17
75543;BME280;64129;53.508;10.476;2023-07-31T10:10:30;99989.78;;;16.92;98.72
75543;BME280;64129;53.508;10.476;2023-07-31T10:12:59;99976.16;;;16.95;99.96
75543;BME280;64129;53.508;10.476;2023-07-31T10:15:27;99983.84;;;17.01;98.50
75543;BME280;64129;53.508;10.476;2023-07-31T10:17:53;99967.75;;;17.01;99.11
75543;BME280;64129;53.508;10.476;2023-07-31T10:20:20;99971.38;;;17.14;98.33
75543;BME280;64129;53.508;10.476;2023-07-31T10:22:47;99981.94;;;17.03;98.57
75543;BME280;64129;53.508;10.476;2023-07-31T10:25:15;99968.78;;;16.84;99.00
75543;BME280;64129;53.508;10.476;2023-07-31T10:27:43;99965.25;;;16.84;99.92
75543;BME280;64129;53.508;10.476;2023-07-31T10:30:15;99971.00;;;16.78;100.00
75543;BME280;64129;53.508;10.476;2023-07-31T10:32:44;99971.00;;;16.78;100.00
75543;BME280;64129;53.508;10.476;2023-07-31T10:35:11;99959.31;;;16.79;100.00
75543;BME280;64129;53.508;10.476;2023-07-31T10:37:42;99952.78;;;16.97;99.54
75543;BME280;64129;53.508;10.476;2023-07-31T10:42:48;99955.28;;;16.86;100.00
75543;BME280;64129;53.508;10.476;2023-07-31T10:48:05;99953.19;;;16.77;99.75
75543;BME280;64129;53.508;10.476;2023-07-31T10:50:32;99948.19;;;16.71;100.00
75543;BME280;64129;53.508;10.476;2023-07-31T10:53:03;99959.88;;;16.70;100.00
75543;BME280;64129;53.508;10.476;2023-07-31T10:55:32;99935.19;;;16.79;100.00
75543;BME280;64129;53.508;10.476;2023-07-31T10:58:13;99943.97;;;16.81;100.00
75543;BME280;64129;53.508;10.476;2023-07-31T11:00:42;99939.69;;;16.78;100.00
75543;BME280;64129;53.508;10.476;2023-07-31T11:03:14;99945.50;;;16.85;100.00
75543;BME280;64129;53.508;10.476;2023-07-31T11:08:32;99930.75;;;16.92;99.64
75543;BME280;64129;53.508;10.476;2023-07-31T11:13:29;99928.16;;;17.19;99.37
75543;BME280;64129;53.508;10.476;2023-07-31T11:15:56;99933.59;;;17.32;98.81
75543;BME280;64129;53.508;10.476;2023-07-31T11:18:23;99932.81;;;17.44;98.60
75543;BME280;64129;53.508;10.476;2023-07-31T11:20:50;99922.59;;;17.63;98.14
75543;BME280;64129;53.508;10.476;2023-07-31T11:23:17;99929.50;;;17.67;97.74
75543;BME280;64129;53.508;10.476;2023-07-31T11:25:44;99925.84;;;17.68;98.14
75543;BME280;64129;53.508;10.476;2023-07-31T11:28:13;99924.72;;;17.72;99.13
75543;BME280;64129;53.508;10.476;2023-07-31T11:30:41;99927.50;;;17.57;99.41
75543;BME280;64129;53.508;10.476;2023-07-31T11:33:09;99931.97;;;17.43;99.20
75543;BME280;64129;53.508;10.476;2023-07-31T11:35:41;99919.94;;;17.49;98.52
75543;BME280;64129;53.508;10.476;2023-07-31T11:38:12;99926.50;;;17.45;99.35
75543;BME280;64129;53.508;10.476;2023-07-31T11:40:46;99926.59;;;17.43;99.63
75543;BME280;64129;53.508;10.476;2023-07-31T11:43:13;99915.75;;;17.45;99.05
75543;BME280;64129;53.508;10.476;2023-07-31T11:45:47;99917.63;;;17.57;100.00
75543;BME280;64129;53.508;10.476;2023-07-31T11:50:49;99907.50;;;17.48;100.00
75543;BME280;64129;53.508;10.476;2023-07-31T11:53:19;99915.28;;;17.65;100.00
75543;BME280;64129;53.508;10.476;2023-07-31T11:55:47;99906.25;;;17.66;100.00
75543;BME280;64129;53.508;10.476;2023-07-31T11:58:15;99910.88;;;17.64;100.00
75543;BME280;64129;53.508;10.476;2023-07-31T12:00:42;99904.72;;;17.50;100.00
75543;BME280;64129;53.508;10.476;2023-07-31T12:03:09;99908.34;;;17.49;100.00
75543;BME280;64129;53.508;10.476;2023-07-31T12:05:37;99906.25;;;17.66;100.00
75543;BME280;64129;53.508;10.476;2023-07-31T12:08:11;99903.63;;;17.52;100.00
75543;BME280;64129;53.508;10.476;2023-07-31T12:10:38;99903.09;;;17.47;100.00
75543;BME280;64129;53.508;10.476;2023-07-31T12:16:03;99903.22;;;17.58;100.00
75543;BME280;64129;53.508;10.476;2023-07-31T12:18:34;99906.13;;;17.69;100.00
75543;BME280;64129;53.508;10.476;2023-07-31T12:21:04;99903.44;;;17.55;100.00
75543;BME280;64129;53.508;10.476;2023-07-31T12:23:32;99900.88;;;17.66;100.00
75543;BME280;64129;53.508;10.476;2023-07-31T12:26:05;99894.50;;;17.69;100.00
75543;BME280;64129;53.508;10.476;2023-07-31T12:28:43;99892.50;;;17.58;100.00
75543;BME280;64129;53.508;10.476;2023-07-31T12:31:11;99895.69;;;17.51;100.00
75543;BME280;64129;53.508;10.476;2023-07-31T12:33:39;99889.22;;;17.67;100.00
75543;BME280;64129;53.508;10.476;2023-07-31T12:36:07;99884.63;;;17.69;100.00
75543;BME280;64129;53.508;10.476;2023-07-31T12:38:34;99884.44;;;17.72;100.00
75543;BME280;64129;53.508;10.476;2023-07-31T12:41:01;99880.03;;;17.57;100.00
75543;BME280;64129;53.508;10.476;2023-07-31T12:43:27;99870.59;;;17.64;100.00
75543;BME280;64129;53.508;10.476;2023-07-31T12:45:54;99874.44;;;17.60;100.00
75543;BME280;64129;53.508;10.476;2023-07-31T12:48:22;99874.13;;;17.65;100.00
75543;BME280;64129;53.508;10.476;2023-07-31T12:50:49;99866.59;;;17.71;100.00
75543;BME280;64129;53.508;10.476;2023-07-31T12:53:16;99860.16;;;17.74;100.00
75543;BME280;64129;53.508;10.476;2023-07-31T12:55:42;99856.75;;;17.97;100.00
75543;BME280;64129;53.508;10.476;2023-07-31T12:58:09;99854.59;;;17.90;100.00
75543;BME280;64129;53.508;10.476;2023-07-31T13:00:36;99857.03;;;17.80;100.00
75543;BME280;64129;53.508;10.476;2023-07-31T13:03:03;99856.88;;;17.69;100.00